Time;durP1;ratioP1;P1;durP2;ratioP2;P2;SDS_P1;SDS_P2;PMS_P1;PMS_P2;Temp;Humidity;BMP_temperature;BMP_pressure;BME280_temperature;BME280_humidity;BME280_pressure;Samples;Min_cycle;Max_cycle;Signal;HPM_P1;HPM_P2
2022/11/22 00:00:07;;;;;;;;;;;2.80;99.90;;;;;;5091754;28;1104;-62
2022/11/22 00:02:34;;;;;;;;;;;2.80;99.90;;;;;;5090320;28;1088;-62
2022/11/22 00:04:59;;;;;;;;;;;2.80;99.90;;;;;;5091113;28;1106;-62
2022/11/22 00:07:25;;;;;;;;;;;2.70;99.90;;;;;;5091393;28;1116;-62
2022/11/22 00:09:51;;;;;;;;;;;2.80;99.90;;;;;;5090424;28;1126;-62
2022/11/22 00:12:16;;;;;;;;;;;2.80;99.90;;;;;;5090979;28;1112;-62
2022/11/22 00:14:42;;;;;;;;;;;2.80;99.90;;;;;;5073382;28;1129;-62
2022/11/22 00:17:08;;;;;;;;;;;2.90;99.90;;;;;;5089669;28;1959;-62
2022/11/22 00:19:34;;;;;;;;;;;3.20;99.90;;;;;;5091200;28;1147;-62
2022/11/22 00:22:00;;;;;;;;;;;2.90;99.90;;;;;;5062954;28;1240;-62
2022/11/22 00:24:26;;;;;;;;;;;2.90;99.90;;;;;;5090555;28;1123;-62
2022/11/22 00:26:51;;;;;;;;;;;2.90;99.90;;;;;;5094505;28;1167;-62
2022/11/22 00:29:17;;;;;;;;;;;2.90;99.90;;;;;;5090093;28;1144;-62
2022/11/22 00:31:43;;;;;;;;;;;2.80;99.90;;;;;;5090039;28;1159;-62
2022/11/22 00:34:08;;;;;;;;;;;3.00;99.90;;;;;;5090929;28;1195;-62
2022/11/22 00:36:34;;;;;;;;;;;2.90;99.90;;;;;;5090068;28;2020;-62
2022/11/22 00:38:59;;;;;;;;;;;2.90;99.90;;;;;;5090007;28;1155;-62
2022/11/22 00:41:25;;;;;;;;;;;2.90;99.90;;;;;;5090807;28;1147;-62
2022/11/22 00:43:51;;;;;;;;;;;2.90;99.90;;;;;;5089717;28;1144;-62
2022/11/22 00:46:16;;;;;;;;;;;2.90;99.90;;;;;;5090228;28;1138;-62
2022/11/22 00:48:42;;;;;;;;;;;3.00;99.90;;;;;;5073441;28;1566;-62
2022/11/22 00:51:07;;;;;;;;;;;3.00;99.90;;;;;;5071325;28;1449;-62
2022/11/22 00:53:33;;;;;;;;;;;3.00;99.90;;;;;;5090128;28;1159;-62
2022/11/22 00:55:59;;;;;;;;;;;3.00;99.90;;;;;;5089820;28;1910;-62
2022/11/22 00:58:24;;;;;;;;;;;3.00;99.90;;;;;;5088440;28;1104;-62
2022/11/22 01:00:50;;;;;;;;;;;3.00;99.90;;;;;;5089613;28;1100;-62
2022/11/22 01:03:16;;;;;;;;;;;3.00;99.90;;;;;;5095000;28;1868;-62
2022/11/22 01:05:41;;;;;;;;;;;3.00;99.90;;;;;;5089159;28;1055;-62
2022/11/22 01:08:07;;;;;;;;;;;3.00;99.90;;;;;;5090165;28;1221;-62
2022/11/22 01:10:35;;;;;;;;;;;3.00;99.90;;;;;;5089986;28;1100;-62
2022/11/22 01:13:00;;;;;;;;;;;3.00;99.90;;;;;;5071150;28;1149;-62
2022/11/22 01:15:26;;;;;;;;;;;3.10;99.90;;;;;;5071450;28;1196;-62
2022/11/22 01:17:52;;;;;;;;;;;3.00;99.90;;;;;;5071886;28;1906;-62
2022/11/22 01:20:17;;;;;;;;;;;3.00;99.90;;;;;;5089042;28;1128;-62
2022/11/22 01:22:43;;;;;;;;;;;3.00;99.90;;;;;;5062592;28;1558;-62
2022/11/22 01:25:09;;;;;;;;;;;3.10;99.90;;;;;;5089425;28;1132;-62
2022/11/22 01:27:34;;;;;;;;;;;3.10;99.90;;;;;;5075538;28;1705;-62
2022/11/22 01:30:00;;;;;;;;;;;3.10;99.90;;;;;;5070787;28;1690;-62
2022/11/22 01:32:25;;;;;;;;;;;3.10;99.90;;;;;;5066517;28;1258;-62
2022/11/22 01:34:51;;;;;;;;;;;3.10;99.90;;;;;;5089464;28;1167;-62
2022/11/22 01:37:17;;;;;;;;;;;3.10;99.90;;;;;;5089717;28;1981;-62
2022/11/22 01:39:42;;;;;;;;;;;3.10;99.90;;;;;;5088832;28;1175;-62
2022/11/22 01:42:09;;;;;;;;;;;3.10;99.90;;;;;;5089313;28;1141;-62
2022/11/22 01:44:35;;;;;;;;;;;3.20;99.90;;;;;;5089458;28;1144;-62
2022/11/22 01:47:10;;;;;;;;;;;3.10;99.90;;;;;;5088476;28;1319;-62
2022/11/22 01:49:41;;;;;;;;;;;3.10;99.90;;;;;;5089013;28;1166;-62
2022/11/22 01:52:11;;;;;;;;;;;3.20;99.90;;;;;;5089016;28;1280;-62
2022/11/22 01:54:38;;;;;;;;;;;3.10;99.90;;;;;;5088704;28;1288;-62
2022/11/22 01:57:06;;;;;;;;;;;3.10;99.90;;;;;;5089414;28;1918;-62
2022/11/22 01:59:34;;;;;;;;;;;3.10;99.90;;;;;;5079248;28;1137;-62
2022/11/22 02:02:01;;;;;;;;;;;3.10;99.90;;;;;;5088844;28;1096;-62
2022/11/22 02:04:28;;;;;;;;;;;3.10;99.90;;;;;;5089390;28;1120;-62
2022/11/22 02:07:00;;;;;;;;;;;3.10;99.90;;;;;;5070844;28;1161;-62
2022/11/22 02:09:26;;;;;;;;;;;3.10;99.90;;;;;;5088541;28;1108;-62
2022/11/22 02:11:54;;;;;;;;;;;3.10;99.90;;;;;;5089161;28;1120;-62
2022/11/22 02:14:23;;;;;;;;;;;3.10;99.90;;;;;;5089038;28;1152;-62
2022/11/22 02:16:48;;;;;;;;;;;3.10;99.90;;;;;;5088484;28;1918;-62
2022/11/22 02:19:22;;;;;;;;;;;3.50;99.90;;;;;;5089061;28;1277;-62
2022/11/22 02:21:50;;;;;;;;;;;3.10;99.90;;;;;;5079457;28;1331;-62
2022/11/22 02:24:18;;;;;;;;;;;3.10;99.90;;;;;;5089043;28;1136;-62
2022/11/22 02:26:44;;;;;;;;;;;3.10;99.90;;;;;;5077802;28;2077;-62
2022/11/22 02:29:11;;;;;;;;;;;3.10;99.90;;;;;;5087786;28;1143;-62
2022/11/22 02:31:38;;;;;;;;;;;3.10;99.90;;;;;;5099019;28;1152;-62
2022/11/22 02:34:04;;;;;;;;;;;3.10;99.90;;;;;;5088995;28;1140;-62
2022/11/22 02:36:32;;;;;;;;;;;3.10;99.90;;;;;;5088327;28;1926;-62
2022/11/22 02:38:57;;;;;;;;;;;3.20;99.90;;;;;;5088610;28;1052;-62
2022/11/22 02:41:23;;;;;;;;;;;3.00;99.90;;;;;;5089041;28;1132;-62
2022/11/22 02:43:49;;;;;;;;;;;3.20;99.90;;;;;;5098347;28;1067;-62
2022/11/22 02:46:19;;;;;;;;;;;3.00;99.90;;;;;;5105737;28;1103;-62
2022/11/22 02:48:45;;;;;;;;;;;3.00;99.90;;;;;;5083595;28;1577;-62
2022/11/22 02:51:15;;;;;;;;;;;3.00;99.90;;;;;;5087431;28;1278;-62
2022/11/22 02:53:42;;;;;;;;;;;3.10;99.90;;;;;;5088552;28;1105;-62
2022/11/22 02:56:08;;;;;;;;;;;3.10;99.90;;;;;;5089009;28;1999;-62
2022/11/22 02:58:33;;;;;;;;;;;3.10;99.90;;;;;;5088026;28;1087;-62
2022/11/22 03:00:59;;;;;;;;;;;3.10;99.90;;;;;;5088386;28;1140;-62
2022/11/22 03:03:25;;;;;;;;;;;3.10;99.90;;;;;;5088891;28;1310;-62
2022/11/22 03:05:50;;;;;;;;;;;3.10;99.90;;;;;;5088028;28;1108;-62
2022/11/22 03:08:16;;;;;;;;;;;3.10;99.90;;;;;;5088601;28;1036;-62
2022/11/22 03:10:42;;;;;;;;;;;3.10;99.90;;;;;;5087647;28;1172;-62
2022/11/22 03:13:07;;;;;;;;;;;3.10;99.90;;;;;;5070729;28;1122;-62
2022/11/22 03:15:33;;;;;;;;;;;3.20;99.90;;;;;;5070348;28;1164;-62
2022/11/22 03:17:59;;;;;;;;;;;3.10;99.90;;;;;;5087456;28;1990;-62
2022/11/22 03:20:25;;;;;;;;;;;3.10;99.90;;;;;;5088110;28;1109;-62
2022/11/22 03:22:50;;;;;;;;;;;3.20;99.90;;;;;;5081660;28;1592;-62
2022/11/22 03:25:16;;;;;;;;;;;3.20;99.90;;;;;;5091455;28;1112;-62
2022/11/22 03:27:42;;;;;;;;;;;3.20;99.90;;;;;;5094658;28;1102;-62
2022/11/22 03:30:07;;;;;;;;;;;3.20;99.90;;;;;;5091641;28;1195;-62
2022/11/22 03:32:33;;;;;;;;;;;3.20;99.90;;;;;;5091147;28;1294;-62
2022/11/22 03:34:59;;;;;;;;;;;3.20;99.90;;;;;;5091605;28;1151;-61
2022/11/22 03:37:24;;;;;;;;;;;3.20;99.90;;;;;;5080778;28;1914;-61
2022/11/22 03:39:50;;;;;;;;;;;3.40;99.90;;;;;;5091141;28;1116;-61
2022/11/22 03:42:17;;;;;;;;;;;3.20;99.90;;;;;;5073664;28;1086;-61
2022/11/22 03:44:42;;;;;;;;;;;3.20;99.90;;;;;;5091016;28;1124;-61
2022/11/22 03:47:08;;;;;;;;;;;3.40;99.90;;;;;;5091016;28;1319;-61
2022/11/22 03:49:33;;;;;;;;;;;3.20;99.90;;;;;;5091950;28;962;-62
2022/11/22 03:51:59;;;;;;;;;;;3.20;99.90;;;;;;5091074;28;1284;-61
2022/11/22 03:54:25;;;;;;;;;;;3.40;99.90;;;;;;5090595;28;1156;-61
2022/11/22 03:56:50;;;;;;;;;;;3.20;99.90;;;;;;5091633;28;1902;-61
2022/11/22 03:59:16;;;;;;;;;;;3.20;99.90;;;;;;5091172;28;1148;-62
2022/11/22 04:01:42;;;;;;;;;;;3.20;99.90;;;;;;5090519;28;1099;-61
2022/11/22 04:04:07;;;;;;;;;;;3.30;99.90;;;;;;5091110;28;1296;-61
2022/11/22 04:06:33;;;;;;;;;;;3.40;99.90;;;;;;5091237;28;1155;-61
2022/11/22 04:08:58;;;;;;;;;;;3.20;99.90;;;;;;5090679;28;1131;-62
2022/11/22 04:11:24;;;;;;;;;;;3.60;99.90;;;;;;5090999;28;1221;-61
2022/11/22 04:16:34;;;;;;;;;;;3.20;99.90;;;;;;5090952;28;1918;-61
2022/11/22 04:19:00;;;;;;;;;;;3.20;99.90;;;;;;5091221;28;1164;-61
2022/11/22 04:21:33;;;;;;;;;;;3.20;99.90;;;;;;5081631;28;1323;-61
2022/11/22 04:26:43;;;;;;;;;;;3.20;99.90;;;;;;5073987;28;1109;-61
2022/11/22 04:29:09;;;;;;;;;;;3.20;99.90;;;;;;5098602;28;1250;-61
2022/11/22 04:34:19;;;;;;;;;;;3.20;99.90;;;;;;5099110;28;1088;-61
2022/11/22 04:36:45;;;;;;;;;;;3.20;99.90;;;;;;5071219;28;1906;-61
2022/11/22 04:39:10;;;;;;;;;;;3.20;99.90;;;;;;5090391;28;1126;-61
2022/11/22 04:41:36;;;;;;;;;;;3.20;99.90;;;;;;5090645;28;1148;-61
2022/11/22 04:46:46;;;;;;;;;;;3.20;99.90;;;;;;5090085;28;1319;-61
2022/11/22 04:49:11;;;;;;;;;;;3.40;99.90;;;;;;5083495;28;1069;-61
2022/11/22 04:54:21;;;;;;;;;;;3.20;99.90;;;;;;5090435;28;1131;-61
2022/11/22 04:56:47;;;;;;;;;;;3.30;99.90;;;;;;5089528;28;1914;-61
2022/11/22 04:59:12;;;;;;;;;;;3.20;99.90;;;;;;5090338;28;1073;-61
2022/11/22 05:01:38;;;;;;;;;;;3.20;99.90;;;;;;5090666;28;1001;-61
2022/11/22 05:04:03;;;;;;;;;;;3.20;99.90;;;;;;5089419;28;1100;-61
2022/11/22 05:06:29;;;;;;;;;;;3.20;99.90;;;;;;5071861;28;1105;-61
2022/11/22 05:08:56;;;;;;;;;;;3.20;99.90;;;;;;5090348;28;1073;-61
2022/11/22 05:11:21;;;;;;;;;;;3.30;99.90;;;;;;5089579;28;1060;-61
2022/11/22 05:13:47;;;;;;;;;;;3.30;99.90;;;;;;5089494;28;1109;-61
2022/11/22 05:16:13;;;;;;;;;;;3.50;99.90;;;;;;5098980;28;1977;-62
2022/11/22 05:18:39;;;;;;;;;;;3.40;99.90;;;;;;5099990;28;1289;-61
2022/11/22 05:21:06;;;;;;;;;;;3.30;99.90;;;;;;5075539;28;1389;-61
2022/11/22 05:26:16;;;;;;;;;;;3.30;99.90;;;;;;5089314;28;1176;-61
2022/11/22 05:28:41;;;;;;;;;;;3.30;99.90;;;;;;5071549;28;1172;-61
2022/11/22 05:31:07;;;;;;;;;;;3.30;99.90;;;;;;5094636;28;1119;-61
2022/11/22 05:33:33;;;;;;;;;;;3.40;99.90;;;;;;5089073;28;1143;-62
2022/11/22 05:35:59;;;;;;;;;;;3.40;99.90;;;;;;5089509;28;1191;-62
2022/11/22 05:38:25;;;;;;;;;;;3.40;99.90;;;;;;5088921;28;2006;-62
2022/11/22 05:40:50;;;;;;;;;;;3.40;99.90;;;;;;5089402;28;1130;-61
2022/11/22 05:43:16;;;;;;;;;;;3.80;99.90;;;;;;5088864;28;1085;-62
2022/11/22 05:45:42;;;;;;;;;;;3.40;99.90;;;;;;5093489;28;1085;-62
2022/11/22 05:48:07;;;;;;;;;;;3.50;99.90;;;;;;5073609;28;1350;-62
2022/11/22 05:50:34;;;;;;;;;;;3.50;99.90;;;;;;5097077;28;1393;-61
2022/11/22 05:53:00;;;;;;;;;;;3.50;99.90;;;;;;5098333;28;1124;-62
2022/11/22 05:55:26;;;;;;;;;;;3.90;99.90;;;;;;5101170;28;1303;-62
2022/11/22 05:57:52;;;;;;;;;;;3.50;99.90;;;;;;5096938;28;1914;-62
2022/11/22 06:00:18;;;;;;;;;;;3.50;99.90;;;;;;5097904;28;1215;-62
2022/11/22 06:02:43;;;;;;;;;;;3.50;99.90;;;;;;5099220;28;1068;-62
2022/11/22 06:05:09;;;;;;;;;;;3.60;99.90;;;;;;5098251;28;1299;-62
2022/11/22 06:07:34;;;;;;;;;;;3.60;99.90;;;;;;5088360;28;1089;-62
2022/11/22 06:10:00;;;;;;;;;;;3.60;99.90;;;;;;5089334;28;1175;-62
2022/11/22 06:12:26;;;;;;;;;;;3.60;99.90;;;;;;5088688;28;1095;-62
2022/11/22 06:14:51;;;;;;;;;;;3.60;99.90;;;;;;5088179;28;1157;-62
2022/11/22 06:17:17;;;;;;;;;;;3.60;99.90;;;;;;5089178;28;1965;-62
2022/11/22 06:19:43;;;;;;;;;;;3.60;99.90;;;;;;5070333;28;1094;-62
2022/11/22 06:22:09;;;;;;;;;;;3.70;99.90;;;;;;5091607;28;1286;-62
2022/11/22 06:24:34;;;;;;;;;;;3.70;99.90;;;;;;5087433;28;1200;-62
2022/11/22 06:27:00;;;;;;;;;;;3.70;99.90;;;;;;5092595;28;1172;-62
2022/11/22 06:29:26;;;;;;;;;;;3.80;99.90;;;;;;5088528;28;1171;-62
2022/11/22 06:31:51;;;;;;;;;;;3.80;99.90;;;;;;5070976;28;1092;-62
2022/11/22 06:34:17;;;;;;;;;;;3.80;99.90;;;;;;5088108;28;1162;-62
2022/11/22 06:36:43;;;;;;;;;;;3.80;99.90;;;;;;5088298;28;1918;-62
2022/11/22 06:39:08;;;;;;;;;;;3.80;99.90;;;;;;5088955;28;1127;-62
2022/11/22 06:41:35;;;;;;;;;;;3.80;99.90;;;;;;5070275;28;1098;-62
2022/11/22 06:44:03;;;;;;;;;;;4.00;99.90;;;;;;5070358;28;1121;-62
2022/11/22 06:46:29;;;;;;;;;;;3.90;99.90;;;;;;5088756;28;1077;-62
2022/11/22 06:48:54;;;;;;;;;;;3.90;99.90;;;;;;5082183;28;1629;-62
2022/11/22 06:51:21;;;;;;;;;;;3.90;99.90;;;;;;5088113;28;1148;-62
2022/11/22 06:53:47;;;;;;;;;;;3.90;99.90;;;;;;5070875;28;1090;-62
2022/11/22 06:56:15;;;;;;;;;;;3.90;99.90;;;;;;5070850;28;1918;-63
2022/11/22 06:58:41;;;;;;;;;;;3.90;99.90;;;;;;5092684;28;1148;-62
2022/11/22 07:01:09;;;;;;;;;;;3.90;99.90;;;;;;5074162;28;1337;-62
2022/11/22 07:03:36;;;;;;;;;;;3.90;99.90;;;;;;5091578;28;1166;-62
2022/11/22 07:06:02;;;;;;;;;;;4.00;99.90;;;;;;5092667;28;1136;-62
2022/11/22 07:08:27;;;;;;;;;;;3.90;99.90;;;;;;5092278;28;1096;-63
2022/11/22 07:10:53;;;;;;;;;;;4.00;99.90;;;;;;5072958;28;1160;-63
2022/11/22 07:13:19;;;;;;;;;;;4.00;99.90;;;;;;5092524;28;1076;-63
2022/11/22 07:15:57;;;;;;;;;;;4.00;99.90;;;;;;5092135;28;1128;-63
2022/11/22 07:18:23;;;;;;;;;;;4.00;99.90;;;;;;5090695;28;2007;-63
2022/11/22 07:20:48;;;;;;;;;;;4.00;99.90;;;;;;5089532;28;1303;-62
2022/11/22 07:23:14;;;;;;;;;;;4.00;99.90;;;;;;5072737;28;1053;-63
2022/11/22 07:25:46;;;;;;;;;;;4.00;99.90;;;;;;5090530;28;1146;-63
2022/11/22 07:28:12;;;;;;;;;;;4.00;99.90;;;;;;5092059;28;1068;-62
2022/11/22 07:30:39;;;;;;;;;;;4.10;99.90;;;;;;5095569;28;1317;-63
2022/11/22 07:33:04;;;;;;;;;;;4.10;99.90;;;;;;5095155;28;1234;-62
2022/11/22 07:35:30;;;;;;;;;;;4.10;99.90;;;;;;5091532;28;1201;-63
2022/11/22 07:37:56;;;;;;;;;;;4.10;99.90;;;;;;5091651;28;1990;-62
2022/11/22 07:40:21;;;;;;;;;;;4.10;99.90;;;;;;5073369;28;1172;-63
2022/11/22 07:42:47;;;;;;;;;;;4.00;99.90;;;;;;5091805;28;1104;-62
2022/11/22 07:45:13;;;;;;;;;;;4.10;99.90;;;;;;5090568;28;1185;-62
2022/11/22 07:47:38;;;;;;;;;;;4.20;99.90;;;;;;5091205;28;1339;-63
2022/11/22 07:50:04;;;;;;;;;;;4.20;99.90;;;;;;5073375;28;1526;-62
2022/11/22 07:52:30;;;;;;;;;;;4.20;99.90;;;;;;5090537;28;1142;-63
2022/11/22 07:54:55;;;;;;;;;;;4.10;99.90;;;;;;5091770;28;1108;-62
2022/11/22 07:57:21;;;;;;;;;;;4.30;99.90;;;;;;5073400;28;1946;-62
2022/11/22 07:59:47;;;;;;;;;;;4.30;99.90;;;;;;5091012;28;1226;-63
2022/11/22 08:02:12;;;;;;;;;;;4.30;99.90;;;;;;5090623;28;1427;-63
2022/11/22 08:04:38;;;;;;;;;;;4.30;99.90;;;;;;5095476;28;1288;-63
2022/11/22 08:07:04;;;;;;;;;;;4.30;99.90;;;;;;5100202;28;1250;-63
2022/11/22 08:09:30;;;;;;;;;;;4.30;99.90;;;;;;5101102;28;1187;-63
2022/11/22 08:11:55;;;;;;;;;;;4.30;99.90;;;;;;5100010;28;1200;-63
2022/11/22 08:14:21;;;;;;;;;;;4.90;99.90;;;;;;5082223;28;1246;-62
2022/11/22 08:16:47;;;;;;;;;;;4.90;99.90;;;;;;5100595;28;1981;-63
2022/11/22 08:19:16;;;;;;;;;;;4.60;99.90;;;;;;5098706;28;1203;-63
2022/11/22 08:21:42;;;;;;;;;;;4.50;99.90;;;;;;5090546;28;1328;-62
2022/11/22 08:24:08;;;;;;;;;;;4.80;99.90;;;;;;5091150;28;1135;-63
2022/11/22 08:26:33;;;;;;;;;;;4.80;99.90;;;;;;5094656;28;1157;-63
2022/11/22 08:28:59;;;;;;;;;;;4.60;99.90;;;;;;5089916;28;1170;-63
2022/11/22 08:31:25;;;;;;;;;;;4.70;99.90;;;;;;5090817;28;1143;-63
2022/11/22 08:33:52;;;;;;;;;;;5.00;99.90;;;;;;5090749;28;1096;-63
2022/11/22 08:36:17;;;;;;;;;;;4.80;99.90;;;;;;5071381;28;1901;-63
2022/11/22 08:38:43;;;;;;;;;;;5.10;99.90;;;;;;5090915;28;1124;-63
2022/11/22 08:41:09;;;;;;;;;;;5.10;99.90;;;;;;5072361;28;1244;-63
2022/11/22 08:43:35;;;;;;;;;;;5.30;99.90;;;;;;5090018;28;1191;-63
2022/11/22 08:46:01;;;;;;;;;;;5.10;99.90;;;;;;5090233;28;1156;-63
2022/11/22 08:48:27;;;;;;;;;;;5.60;99.90;;;;;;5089334;28;1550;-63
2022/11/22 08:50:53;;;;;;;;;;;5.40;99.90;;;;;;5090299;28;1306;-63
2022/11/22 08:53:19;;;;;;;;;;;5.60;99.90;;;;;;5072211;28;1366;-63
2022/11/22 08:55:45;;;;;;;;;;;5.70;99.90;;;;;;5091275;28;1174;-63
2022/11/22 08:58:11;;;;;;;;;;;5.70;99.90;;;;;;5077263;28;1973;-63
2022/11/22 09:00:36;;;;;;;;;;;5.70;99.90;;;;;;5090367;28;1139;-63
2022/11/22 09:03:02;;;;;;;;;;;5.80;99.90;;;;;;5088834;28;1112;-63
2022/11/22 09:05:29;;;;;;;;;;;5.60;99.90;;;;;;5090055;28;1124;-63
2022/11/22 09:07:54;;;;;;;;;;;6.00;99.90;;;;;;5080034;28;1093;-63
2022/11/22 09:10:20;;;;;;;;;;;5.90;99.90;;;;;;5097395;28;1235;-64
2022/11/22 09:12:46;;;;;;;;;;;6.00;99.90;;;;;;5079711;28;1274;-63
2022/11/22 09:15:12;;;;;;;;;;;6.20;99.90;;;;;;5090228;28;1187;-63
2022/11/22 09:17:38;;;;;;;;;;;6.30;99.90;;;;;;5054081;28;2020;-63
2022/11/22 09:20:04;;;;;;;;;;;5.90;99.90;;;;;;5080002;28;1131;-63
2022/11/22 09:22:30;;;;;;;;;;;6.20;99.90;;;;;;5089179;28;1284;-63
2022/11/22 09:24:55;;;;;;;;;;;6.40;99.90;;;;;;5096573;28;1104;-63
2022/11/22 09:27:21;;;;;;;;;;;6.20;99.90;;;;;;5098600;28;1215;-63
2022/11/22 09:29:46;;;;;;;;;;;6.30;99.90;;;;;;5098749;28;1251;-63
2022/11/22 09:32:12;;;;;;;;;;;6.10;99.90;;;;;;5094659;28;1231;-63
2022/11/22 09:34:38;;;;;;;;;;;6.30;99.90;;;;;;5089825;28;1108;-63
2022/11/22 09:37:03;;;;;;;;;;;6.40;99.90;;;;;;5089686;28;1975;-63
2022/11/22 09:39:31;;;;;;;;;;;;;;;;;;5076186;28;3372;-63
2022/11/22 09:41:58;;;;;;;;;;;;;;;;;;5083029;28;3543;-63
2022/11/22 09:44:36;;;;;;;;;;;6.30;99.90;;;;;;5089329;28;3410;-63
2022/11/22 09:47:02;;;;;;;;;;;6.40;99.90;;;;;;5088466;28;3152;-63
2022/11/22 09:49:37;;;;;;;;;;;6.80;99.90;;;;;;5074433;28;1136;-63
2022/11/22 09:52:03;;;;;;;;;;;6.70;99.90;;;;;;5088179;28;1192;-63
2022/11/22 09:54:30;;;;;;;;;;;;;;;;;;5089154;28;1108;-63
2022/11/22 09:56:58;;;;;;;;;;;6.60;99.90;;;;;;5089120;28;1910;-63
2022/11/22 09:59:28;;;;;;;;;;;6.70;99.90;;;;;;5088569;28;1128;-64
2022/11/22 10:02:01;;;;;;;;;;;7.10;99.90;;;;;;5070850;28;1109;-63
2022/11/22 10:04:33;;;;;;;;;;;6.80;99.90;;;;;;5089090;28;1182;-63
2022/11/22 10:07:00;;;;;;;;;;;6.90;99.90;;;;;;5082776;28;1156;-63
2022/11/22 10:09:35;;;;;;;;;;;6.90;99.90;;;;;;5088841;28;1287;-63
2022/11/22 10:12:08;;;;;;;;;;;6.90;99.90;;;;;;5089274;28;1112;-64
2022/11/22 10:14:53;;;;;;;;;;;6.90;99.90;;;;;;5088186;28;1135;-63
2022/11/22 10:17:24;;;;;;;;;;;6.90;99.90;;;;;;5089001;28;1968;-64
2022/11/22 10:19:52;;;;;;;;;;;6.80;99.90;;;;;;5081537;28;1167;-63
2022/11/22 10:22:18;;;;;;;;;;;6.90;99.90;;;;;;5061678;28;1264;-63
2022/11/22 10:24:44;;;;;;;;;;;6.80;99.90;;;;;;5070693;28;1153;-63
2022/11/22 10:27:12;;;;;;;;;;;7.20;99.90;;;;;;5092136;28;1199;-63
2022/11/22 10:29:50;;;;;;;;;;;6.70;99.90;;;;;;5088927;28;1096;-63
2022/11/22 10:32:21;;;;;;;;;;;6.60;99.90;;;;;;5096769;28;1236;-63
2022/11/22 10:34:48;;;;;;;;;;;6.50;99.90;;;;;;5100425;28;1278;-63
2022/11/22 10:37:19;;;;;;;;;;;6.60;99.90;;;;;;5097674;28;1983;-63
2022/11/22 10:39:52;;;;;;;;;;;6.70;99.90;;;;;;5092748;28;1100;-63
2022/11/22 10:42:38;;;;;;;;;;;6.70;99.90;;;;;;5092411;28;1140;-63
2022/11/22 10:45:09;;;;;;;;;;;6.70;99.90;;;;;;5092832;28;1175;-63
2022/11/22 10:47:44;;;;;;;;;;;6.80;99.90;;;;;;5074682;28;1387;-63
2022/11/22 10:50:21;;;;;;;;;;;6.80;99.90;;;;;;5091859;28;1103;-63
2022/11/22 10:53:04;;;;;;;;;;;6.90;99.90;;;;;;5092286;28;1358;-63
2022/11/22 10:55:31;;;;;;;;;;;6.90;99.90;;;;;;5073763;28;1194;-63
2022/11/22 10:57:56;;;;;;;;;;;7.10;99.90;;;;;;5092455;28;1942;-63
2022/11/22 11:00:24;;;;;;;;;;;6.90;99.90;;;;;;5092530;28;1104;-63
2022/11/22 11:03:04;;;;;;;;;;;6.90;99.90;;;;;;5081611;28;1058;-63
2022/11/22 11:05:44;;;;;;;;;;;7.20;99.90;;;;;;5102494;28;1219;-63
2022/11/22 11:08:13;;;;;;;;;;;6.90;99.90;;;;;;5081922;28;1251;-64
2022/11/22 11:10:39;;;;;;;;;;;7.00;99.90;;;;;;5100784;28;1258;-63
2022/11/22 11:13:13;;;;;;;;;;;6.90;99.90;;;;;;5102067;28;1100;-64
2022/11/22 11:15:43;;;;;;;;;;;7.40;99.90;;;;;;5073092;28;1078;-63
2022/11/22 11:18:23;;;;;;;;;;;7.30;99.90;;;;;;5091550;28;1918;-63
2022/11/22 11:20:51;;;;;;;;;;;7.10;99.90;;;;;;5071104;28;1382;-63
2022/11/22 11:23:17;;;;;;;;;;;7.20;99.90;;;;;;5095976;28;1256;-64
2022/11/22 11:25:43;;;;;;;;;;;7.50;99.90;;;;;;5078686;28;1224;-64
2022/11/22 11:28:16;;;;;;;;;;;7.70;99.90;;;;;;5098795;28;1071;-64
2022/11/22 11:30:44;;;;;;;;;;;8.00;99.90;;;;;;5091180;28;1146;-64
2022/11/22 11:33:18;;;;;;;;;;;8.10;99.90;;;;;;5091654;28;1081;-64
2022/11/22 11:35:45;;;;;;;;;;;8.50;99.90;;;;;;5092017;28;1069;-64
2022/11/22 11:38:27;;;;;;;;;;;8.60;99.90;;;;;;5094471;28;1925;-64
2022/11/22 11:40:52;;;;;;;;;;;9.40;99.90;;;;;;5099076;28;1154;-63
2022/11/22 11:43:19;;;;;;;;;;;10.60;99.90;;;;;;5090336;28;1136;-64
2022/11/22 11:45:45;;;;;;;;;;;11.00;99.90;;;;;;5090830;28;1155;-64
2022/11/22 11:48:24;;;;;;;;;;;11.10;99.90;;;;;;5091937;28;1399;-64
2022/11/22 11:50:50;;;;;;;;;;;11.10;99.90;;;;;;5091009;28;1159;-64
2022/11/22 11:53:23;;;;;;;;;;;11.00;99.90;;;;;;5086188;28;3011;-63
2022/11/22 11:55:48;;;;;;;;;;;10.80;99.90;;;;;;5091651;28;1104;-64
2022/11/22 11:58:18;;;;;;;;;;;10.50;99.90;;;;;;5090999;28;1926;-64
2022/11/22 12:00:44;;;;;;;;;;;10.10;99.90;;;;;;5090877;28;1100;-64
2022/11/22 12:03:10;;;;;;;;;;;9.50;99.90;;;;;;5091440;28;1179;-64
2022/11/22 12:05:36;;;;;;;;;;;9.00;99.90;;;;;;5090757;28;1112;-64
2022/11/22 12:08:02;;;;;;;;;;;8.70;99.90;;;;;;5091325;28;1061;-63
2022/11/22 12:10:29;;;;;;;;;;;8.50;99.90;;;;;;5091072;28;1150;-63
2022/11/22 12:13:10;;;;;;;;;;;8.30;99.90;;;;;;5090043;28;1116;-63
2022/11/22 12:15:54;;;;;;;;;;;8.30;99.90;;;;;;5086348;28;1171;-63
2022/11/22 12:18:23;;;;;;;;;;;8.20;99.90;;;;;;5090738;28;2004;-63
2022/11/22 12:21:11;;;;;;;;;;;8.30;99.90;;;;;;5069113;28;1390;-63
2022/11/22 12:23:44;;;;;;;;;;;8.30;99.90;;;;;;5088211;28;1093;-63
2022/11/22 12:26:10;;;;;;;;;;;8.30;99.90;;;;;;5091619;28;1077;-63
2022/11/22 12:28:37;;;;;;;;;;;8.20;99.90;;;;;;5090225;28;1132;-63
2022/11/22 12:31:16;;;;;;;;;;;8.30;99.90;;;;;;5090718;28;1168;-63
2022/11/22 12:33:43;;;;;;;;;;;8.30;99.90;;;;;;5079264;28;1008;-63
2022/11/22 12:36:20;;;;;;;;;;;8.30;99.90;;;;;;5090303;28;1156;-63
2022/11/22 12:38:46;;;;;;;;;;;8.30;99.90;;;;;;5090623;28;1996;-63
2022/11/22 12:41:15;;;;;;;;;;;8.30;99.90;;;;;;5089994;28;1179;-63
2022/11/22 12:43:54;;;;;;;;;;;8.20;99.90;;;;;;5089991;28;1171;-64
2022/11/22 12:46:22;;;;;;;;;;;8.20;99.90;;;;;;5093459;28;1171;-63
2022/11/22 12:48:50;;;;;;;;;;;8.10;99.90;;;;;;5065559;28;1676;-61
2022/11/22 12:51:21;;;;;;;;;;;8.00;99.90;;;;;;5090005;28;1220;-63
2022/11/22 12:53:47;;;;;;;;;;;8.00;99.90;;;;;;5084326;28;1498;-63
2022/11/22 12:56:28;;;;;;;;;;;7.90;99.90;;;;;;5089568;28;1211;-63
2022/11/22 12:59:04;;;;;;;;;;;7.90;99.90;;;;;;5085223;28;3388;-62
2022/11/22 13:01:31;;;;;;;;;;;7.90;99.90;;;;;;5068523;28;3404;-63
2022/11/22 13:04:01;;;;;;;;;;;7.90;99.90;;;;;;5089162;28;1158;-63
2022/11/22 13:06:30;;;;;;;;;;;7.90;99.90;;;;;;5063132;28;3444;-63
2022/11/22 13:08:59;;;;;;;;;;;7.90;99.90;;;;;;5089340;28;1112;-63
2022/11/22 13:11:28;;;;;;;;;;;7.80;99.90;;;;;;5089662;28;1156;-63
2022/11/22 13:13:57;;;;;;;;;;;7.90;99.90;;;;;;5088775;28;1089;-63
2022/11/22 13:16:22;;;;;;;;;;;7.80;99.90;;;;;;5088771;28;1093;-63
2022/11/22 13:18:53;;;;;;;;;;;7.80;99.90;;;;;;5089612;28;1973;-63
2022/11/22 13:21:38;;;;;;;;;;;7.80;99.90;;;;;;5082361;28;1339;-63
2022/11/22 13:24:07;;;;;;;;;;;7.80;99.90;;;;;;5079360;28;1162;-63
2022/11/22 13:26:39;;;;;;;;;;;7.70;99.90;;;;;;5075196;28;1742;-63
2022/11/22 13:29:16;;;;;;;;;;;7.80;99.90;;;;;;5099920;28;1050;-63
2022/11/22 13:32:01;;;;;;;;;;;7.70;99.90;;;;;;5088813;28;1179;-63
2022/11/22 13:34:27;;;;;;;;;;;7.70;99.90;;;;;;5089504;28;1036;-63
2022/11/22 13:36:52;;;;;;;;;;;7.80;99.90;;;;;;5088504;28;1906;-63
2022/11/22 13:39:20;;;;;;;;;;;7.80;99.90;;;;;;5089704;28;1124;-63
2022/11/22 13:41:46;;;;;;;;;;;7.80;99.90;;;;;;5089535;28;1140;-63
2022/11/22 13:44:32;;;;;;;;;;;7.70;99.90;;;;;;5088559;28;1163;-63
2022/11/22 13:47:23;;;;;;;;;;;7.70;99.90;;;;;;5080148;28;1344;-63
2022/11/22 13:49:50;;;;;;;;;;;7.70;99.90;;;;;;5089014;28;1101;-63
2022/11/22 13:52:16;;;;;;;;;;;7.70;99.90;;;;;;5070118;28;1311;-63
2022/11/22 13:54:45;;;;;;;;;;;7.80;99.90;;;;;;5089099;28;1124;-63
2022/11/22 13:57:21;;;;;;;;;;;7.70;99.90;;;;;;5089432;28;1906;-63
2022/11/22 14:00:07;;;;;;;;;;;7.70;99.90;;;;;;5088782;28;1151;-63
2022/11/22 14:02:33;;;;;;;;;;;7.70;99.90;;;;;;5085809;28;3089;-63
2022/11/22 14:04:58;;;;;;;;;;;7.70;99.90;;;;;;5078181;28;3457;-63
2022/11/22 14:07:30;;;;;;;;;;;7.60;99.90;;;;;;5102907;28;1210;-63
2022/11/22 14:09:57;;;;;;;;;;;7.70;99.90;;;;;;5082096;28;3431;-63
2022/11/22 14:12:24;;;;;;;;;;;7.70;99.90;;;;;;5087294;28;1147;-63
2022/11/22 14:15:07;;;;;;;;;;;7.60;99.90;;;;;;5088882;28;1124;-63
2022/11/22 14:17:34;;;;;;;;;;;7.60;99.90;;;;;;5088355;28;1991;-63
2022/11/22 14:20:06;;;;;;;;;;;7.60;99.90;;;;;;5087960;28;1080;-63
2022/11/22 14:22:51;;;;;;;;;;;7.60;99.90;;;;;;5083922;28;2817;-63
2022/11/22 14:25:35;;;;;;;;;;;7.60;99.90;;;;;;5087791;28;2044;-63
2022/11/22 14:28:23;;;;;;;;;;;7.60;99.90;;;;;;5092345;28;1060;-63
2022/11/22 14:30:50;;;;;;;;;;;7.60;99.90;;;;;;5091186;28;1148;-63
2022/11/22 14:33:17;;;;;;;;;;;7.60;99.90;;;;;;5091696;28;1187;-63
2022/11/22 14:36:01;;;;;;;;;;;7.60;99.90;;;;;;5088876;28;1108;-63
2022/11/22 14:38:29;;;;;;;;;;;7.60;99.90;;;;;;5070571;28;1942;-63
2022/11/22 14:41:14;;;;;;;;;;;7.50;99.90;;;;;;5074703;28;1885;-63
2022/11/22 14:43:40;;;;;;;;;;;7.50;99.90;;;;;;5088453;28;1203;-63
2022/11/22 14:46:11;;;;;;;;;;;7.50;99.90;;;;;;5088980;28;1131;-63
2022/11/22 14:48:48;;;;;;;;;;;7.50;99.90;;;;;;5074835;28;3286;-63
2022/11/22 14:51:25;;;;;;;;;;;7.40;99.90;;;;;;5082361;28;3801;-63
2022/11/22 14:53:53;;;;;;;;;;;7.40;99.90;;;;;;5070577;28;1078;-63
2022/11/22 14:56:24;;;;;;;;;;;7.30;99.90;;;;;;5059841;28;3149;-63
2022/11/22 14:58:55;;;;;;;;;;;7.30;99.90;;;;;;5068588;28;2412;-63
2022/11/22 15:01:22;;;;;;;;;;;7.30;99.90;;;;;;5075908;28;982;-63
2022/11/22 15:03:59;;;;;;;;;;;7.30;99.90;;;;;;5088478;28;1110;-63